»·PEaware :: QXE2303 KRDM-KPDX

QXE2303 :: KRDM-KPDX

FLIGHT INFORMATION

Flight Status: Arrived
Operator:
Horizon Air
More flights by this operator :: More flights under this callsign
Pilot: Doug L. (8712)
Aircraft: DEHAVILLAND DASH 8 400
(DH8D)
More flights by this aircraft type
Origin: KRDM Roberts
United States
Destination: KPDX Portland Intl
United States
More flights between these airports :: More routes between these airports
Route: DSD V165 MAVER V448 BTG
File this flight plan on PilotEdge
Remarks:
Altitude:
(Current/Filed)
16,000ft
Speed:
(Current/Filed)
330kts
Departed: 14-Feb-19 11:18 AM
Arrived: 14-Feb-19 12:10 PM
Distance/Time
Traveled:
101nm/0:51
Distance/Time
To Go:
Arrived

Flight Plot

Page will automatically refresh every two minutes.

Flight plan parsing failed; only flown route is shown


Map Options




Map Legend


Flown Route
Filed Route
Departure Airport
Arrival Airport
Navaid (VOR, NDB)
Fix

Horizontal Profiles

Position Reports

Time Latitude Longitude Heading Altitude Ground
Speed
14-Feb-19 11:00 44.252991 -121.159253 329 3084ft 0kts
14-Feb-19 11:01 44.252991 -121.159253 329 3084ft 0kts
14-Feb-19 11:02 44.252991 -121.159253 329 3084ft 0kts
14-Feb-19 11:03 44.252991 -121.159253 329 3084ft 0kts
14-Feb-19 11:04 44.252991 -121.159253 329 3084ft 0kts
14-Feb-19 11:05 44.252991 -121.159253 329 3084ft 0kts
14-Feb-19 11:06 44.252991 -121.159253 329 3084ft 0kts
14-Feb-19 11:07 44.252991 -121.159253 329 3084ft 0kts
14-Feb-19 11:08 44.252991 -121.159253 329 3084ft 0kts
14-Feb-19 11:09 44.252991 -121.159253 329 3084ft 0kts
14-Feb-19 11:10 44.252991 -121.159253 329 3084ft 0kts
14-Feb-19 11:11 44.252991 -121.159253 329 3084ft 0kts
14-Feb-19 11:12 44.252991 -121.159253 329 3084ft 0kts
14-Feb-19 11:13 44.252991 -121.159253 329 3084ft 0kts
14-Feb-19 11:14 44.252314 -121.159557 238 3084ft 13kts
14-Feb-19 11:15 44.250784 -121.162417 146 3084ft 12kts
14-Feb-19 11:16 44.249865 -121.160966 61 3084ft 13kts
14-Feb-19 11:17 44.263333 -121.128818 54 3977ft 141kts
14-Feb-19 11:18 44.292854 -121.081463 3 6304ft 177kts
14-Feb-19 11:19 44.317200 -121.141426 267 8776ft 208kts
14-Feb-19 11:20 44.298053 -121.205569 229 11763ft 169kts
14-Feb-19 11:21 44.272205 -121.260686 232 13712ft 174kts
14-Feb-19 11:22 44.280600 -121.331735 289 15241ft 217kts
14-Feb-19 11:23 44.318605 -121.401069 299 16640ft 239kts
14-Feb-19 11:24 44.370581 -121.480246 307 16021ft 309kts
14-Feb-19 11:25 44.432325 -121.569596 307 15976ft 332kts
14-Feb-19 11:26 44.496049 -121.665414 305 15964ft 342kts
14-Feb-19 11:27 44.560910 -121.762518 307 15963ft 349kts
14-Feb-19 11:28 44.626689 -121.861103 307 15961ft 349kts
14-Feb-19 11:29 44.692564 -121.960857 307 15963ft 353kts
14-Feb-19 11:30 44.758498 -122.060731 307 15945ft 357kts
14-Feb-19 11:31 44.825032 -122.161768 308 15952ft 359kts
14-Feb-19 11:32 44.892155 -122.264104 307 16034ft 360kts
14-Feb-19 11:33 44.959033 -122.366701 308 16015ft 362kts
14-Feb-19 11:34 45.025935 -122.469418 309 14964ft 364kts
14-Feb-19 11:35 45.091928 -122.570633 309 13141ft 341kts
14-Feb-19 11:36 45.175485 -122.607198 359 11403ft 314kts
14-Feb-19 11:37 45.259690 -122.605070 2 9674ft 312kts
14-Feb-19 11:38 45.338851 -122.603303 6 7882ft 266kts
14-Feb-19 11:39 45.390764 -122.601900 359 6447ft 246kts
14-Feb-19 11:40 45.425519 -122.666281 283 5078ft 235kts
14-Feb-19 11:41 45.458457 -122.741975 305 4999ft 220kts
14-Feb-19 11:42 45.494901 -122.815325 306 5005ft 234kts
14-Feb-19 11:43 45.535043 -122.890391 316 4743ft 250kts
14-Feb-19 11:44 45.576640 -122.950816 316 4026ft 242kts
14-Feb-19 11:45 45.628157 -122.977942 25 3533ft 207kts
14-Feb-19 11:46 45.677636 -122.949007 42 3018ft 168kts
14-Feb-19 11:47 45.684521 -122.888701 102 2992ft 156kts
14-Feb-19 11:48 45.672402 -122.832573 111 3023ft 149kts
14-Feb-19 11:49 45.655165 -122.777748 116 2455ft 149kts
14-Feb-19 11:50 45.638193 -122.732186 117 1762ft 127kts
14-Feb-19 11:51 45.621144 -122.688077 118 1081ft 123kts
14-Feb-19 11:52 45.603642 -122.643187 119 392ft 136kts
14-Feb-19 11:53 45.587331 -122.601616 120 230ft 102kts
14-Feb-19 11:54 45.568342 -122.556500 147 2532ft 154kts
14-Feb-19 11:55 45.523249 -122.568080 190 4993ft 209kts
14-Feb-19 11:56 45.496074 -122.654239 275 4989ft 269kts
14-Feb-19 11:57 45.510232 -122.748879 295 4999ft 232kts
14-Feb-19 11:58 45.536987 -122.827890 296 4645ft 228kts
14-Feb-19 11:59 45.564969 -122.911175 296 3998ft 229kts
14-Feb-19 12:00 45.604501 -122.973690 326 3975ft 206kts
14-Feb-19 12:01 45.656262 -122.975036 27 3449ft 212kts
14-Feb-19 12:02 45.687938 -122.920436 87 3048ft 176kts
14-Feb-19 12:03 45.679523 -122.858589 107 3012ft 158kts
14-Feb-19 12:04 45.663138 -122.800331 114 2766ft 157kts
14-Feb-19 12:05 45.644809 -122.749198 117 2006ft 132kts
14-Feb-19 12:06 45.627489 -122.704316 118 1335ft 127kts
14-Feb-19 12:07 45.610173 -122.659861 119 655ft 130kts
14-Feb-19 12:08 45.593055 -122.616108 119 40ft 111kts
14-Feb-19 12:09 45.587850 -122.600315 86 38ft 10kts
14-Feb-19 12:10 45.587888 -122.599879 73 38ft 8kts
14-Feb-19 12:11 45.586344 -122.593847 128 38ft 20kts
14-Feb-19 12:12 45.585783 -122.591981 15 38ft 4kts
14-Feb-19 12:13 45.585923 -122.591933 12 37ft 0kts
14-Feb-19 12:14 45.585923 -122.591933 12 37ft 0kts

Navigation Log

Ident Type
Flight plan parsing failed, navigation log unavailable